createdAt,value
2023-04-15T00:00:50.979Z,0.00
2023-04-15T00:01:50.934Z,0.00
2023-04-15T00:02:50.966Z,0.00
2023-04-15T00:03:50.817Z,0.00
2023-04-15T00:04:50.665Z,0.00
2023-04-15T00:05:50.563Z,0.00
2023-04-15T00:06:50.479Z,0.00
2023-04-15T00:07:50.415Z,0.00
2023-04-15T00:08:50.319Z,0.00
2023-04-15T00:09:50.234Z,0.00
2023-04-15T00:10:50.154Z,0.00
2023-04-15T00:11:50.065Z,0.00
2023-04-15T00:12:50.002Z,0.00
2023-04-15T00:13:49.904Z,0.00
2023-04-15T00:14:49.822Z,0.00
2023-04-15T00:15:49.737Z,0.00
2023-04-15T00:16:49.696Z,0.00
2023-04-15T00:17:49.582Z,0.00
2023-04-15T00:18:49.488Z,0.00
2023-04-15T00:19:49.401Z,0.00
2023-04-15T00:20:49.324Z,0.00
2023-04-15T00:21:49.259Z,0.00
2023-04-15T00:22:49.170Z,0.00
2023-04-15T00:23:49.073Z,0.00
2023-04-15T00:24:48.992Z,0.00
2023-04-15T00:25:48.905Z,0.00
2023-04-15T00:26:48.830Z,0.00
2023-04-15T00:27:48.743Z,0.00
2023-04-15T00:28:48.664Z,0.00
2023-04-15T00:29:48.579Z,0.00
2023-04-15T00:30:48.542Z,0.00
2023-04-15T00:31:48.413Z,0.00
2023-04-15T00:32:48.354Z,0.00
2023-04-15T00:33:48.279Z,0.00
2023-04-15T00:34:48.196Z,0.00
2023-04-15T00:35:48.094Z,0.00
2023-04-15T00:36:47.994Z,0.00
2023-04-15T00:37:47.921Z,0.00
2023-04-15T00:38:47.834Z,0.00
2023-04-15T00:39:47.765Z,0.00
2023-04-15T00:40:47.669Z,0.00
2023-04-15T00:41:47.584Z,0.00
2023-04-15T00:42:47.501Z,0.00
2023-04-15T00:43:47.422Z,0.00
2023-04-15T00:44:47.338Z,0.00
2023-04-15T00:45:47.374Z,0.00
2023-04-15T00:46:47.176Z,0.00
2023-04-15T00:47:47.143Z,0.00
2023-04-15T00:48:47.008Z,0.00
2023-04-15T00:49:46.927Z,0.00
2023-04-15T00:50:46.840Z,0.00
2023-04-15T00:51:46.758Z,0.00
2023-04-15T00:52:46.674Z,0.00
2023-04-15T00:53:46.591Z,0.00
2023-04-15T00:54:46.513Z,0.00
2023-04-15T00:55:46.429Z,0.00
2023-04-15T00:56:46.343Z,0.00
2023-04-15T00:57:46.270Z,0.00
2023-04-15T00:58:46.174Z,0.00
2023-04-15T00:59:46.095Z,0.00
2023-04-15T01:00:46.035Z,0.00
2023-04-15T01:01:45.999Z,0.00
2023-04-15T01:02:46.027Z,0.00
2023-04-15T01:03:45.814Z,0.00
2023-04-15T01:04:45.679Z,0.00
2023-04-15T01:05:45.603Z,0.00
2023-04-15T01:06:45.517Z,0.00
2023-04-15T01:07:45.432Z,0.00
2023-04-15T01:08:45.354Z,0.00
2023-04-15T01:09:45.272Z,0.00
2023-04-15T01:10:45.184Z,0.00
2023-04-15T01:11:45.099Z,0.00
2023-04-15T01:12:45.017Z,0.00
2023-04-15T01:13:44.944Z,0.00
2023-04-15T01:14:44.855Z,0.00
2023-04-15T01:15:44.816Z,0.00
2023-04-15T01:16:44.689Z,0.00
2023-04-15T01:17:44.658Z,0.00
2023-04-15T01:18:44.520Z,0.00
2023-04-15T01:19:44.448Z,0.00
2023-04-15T01:20:44.356Z,0.00
2023-04-15T01:21:44.274Z,0.00
2023-04-15T01:22:44.189Z,0.00
2023-04-15T01:23:44.105Z,0.00
2023-04-15T01:24:44.046Z,0.00
2023-04-15T01:25:43.941Z,0.00
2023-04-15T01:26:44.727Z,0.00
2023-04-15T01:27:43.779Z,0.00
2023-04-15T01:28:43.715Z,0.00
2023-04-15T01:29:43.611Z,0.00
2023-04-15T01:30:43.528Z,0.00
2023-04-15T01:31:43.499Z,0.00
2023-04-15T01:32:43.393Z,0.00
2023-04-15T01:33:43.316Z,0.00
2023-04-15T01:34:43.200Z,0.00
2023-04-15T01:35:43.124Z,0.00
2023-04-15T01:36:43.027Z,0.00
2023-04-15T01:37:42.943Z,0.00
2023-04-15T01:38:42.858Z,0.00
2023-04-15T01:39:42.784Z,0.00
2023-04-15T01:40:42.706Z,0.00
2023-04-15T01:41:42.628Z,0.00
2023-04-15T01:42:42.537Z,0.00
2023-04-15T01:43:42.454Z,0.00
2023-04-15T01:44:42.365Z,0.00
2023-04-15T01:45:42.288Z,0.00
2023-04-15T01:46:42.260Z,0.00
2023-04-15T01:47:42.169Z,0.00
2023-04-15T01:48:42.040Z,0.00
2023-04-15T01:49:41.960Z,0.00
2023-04-15T01:50:41.875Z,0.00
2023-04-15T01:51:41.787Z,0.00
2023-04-15T01:52:41.704Z,0.00
2023-04-15T01:53:41.627Z,0.00
2023-04-15T01:54:41.548Z,0.00
2023-04-15T01:55:41.458Z,0.00
2023-04-15T01:56:41.378Z,0.00
2023-04-15T01:57:41.300Z,0.00
2023-04-15T01:58:41.216Z,0.00
2023-04-15T01:59:41.130Z,0.00
2023-04-15T02:00:41.061Z,0.00
2023-04-15T02:01:40.972Z,0.00
2023-04-15T02:02:41.057Z,0.00
2023-04-15T02:03:40.900Z,0.00
2023-04-15T02:04:40.715Z,0.00
2023-04-15T02:05:40.638Z,0.00
2023-04-15T02:06:40.554Z,0.00
2023-04-15T02:07:40.485Z,0.00
2023-04-15T02:08:40.393Z,0.00
2023-04-15T02:09:40.302Z,0.00
2023-04-15T02:10:40.218Z,0.00
2023-04-15T02:11:40.137Z,0.00
2023-04-15T02:12:40.051Z,0.00
2023-04-15T02:13:39.971Z,0.00
2023-04-15T02:14:39.889Z,0.00
2023-04-15T02:15:39.804Z,0.00
2023-04-15T02:16:39.803Z,0.00
2023-04-15T02:17:39.667Z,0.00
2023-04-15T02:18:39.554Z,0.00
2023-04-15T02:19:39.475Z,0.00
2023-04-15T02:20:39.392Z,0.00
2023-04-15T02:21:39.318Z,0.00
2023-04-15T02:22:39.225Z,0.00
2023-04-15T02:23:39.144Z,0.00
2023-04-15T02:24:39.059Z,0.00
2023-04-15T02:25:38.992Z,0.00
2023-04-15T02:26:38.894Z,0.00
2023-04-15T02:27:38.811Z,0.00
2023-04-15T02:28:38.727Z,0.00
2023-04-15T02:29:38.659Z,0.00
2023-04-15T02:30:38.565Z,0.00
2023-04-15T02:31:38.513Z,0.00
2023-04-15T02:32:38.463Z,0.00
2023-04-15T02:33:38.314Z,0.00
2023-04-15T02:34:38.229Z,0.00
2023-04-15T02:35:38.147Z,0.00
2023-04-15T02:36:38.064Z,0.00
2023-04-15T02:37:38.000Z,0.00
2023-04-15T02:38:37.906Z,0.00
2023-04-15T02:39:37.814Z,0.00
2023-04-15T02:40:37.730Z,0.00
2023-04-15T02:41:37.652Z,0.00
2023-04-15T02:42:37.570Z,0.00
2023-04-15T02:43:37.484Z,0.00
2023-04-15T02:44:37.401Z,0.00
2023-04-15T02:45:37.339Z,0.00
2023-04-15T02:46:37.236Z,0.00
2023-04-15T02:47:37.185Z,0.00
2023-04-15T02:48:37.071Z,0.00
2023-04-15T02:49:36.989Z,0.00
2023-04-15T02:50:36.905Z,0.00
2023-04-15T02:51:36.825Z,0.00
2023-04-15T02:52:36.734Z,0.00
2023-04-15T02:53:36.654Z,0.00
2023-04-15T02:54:36.574Z,0.00
2023-04-15T02:55:36.496Z,0.00
2023-04-15T02:56:36.413Z,0.00
2023-04-15T02:57:36.320Z,0.00
2023-04-15T02:58:36.238Z,0.00
2023-04-15T02:59:36.157Z,0.00
2023-04-15T03:00:36.072Z,0.00
2023-04-15T03:01:36.003Z,0.00
2023-04-15T03:02:36.019Z,0.00
2023-04-15T03:03:35.905Z,0.00
2023-04-15T03:04:35.738Z,0.00
2023-04-15T03:05:35.655Z,0.00
2023-04-15T03:06:35.569Z,0.00
2023-04-15T03:07:35.492Z,0.00
2023-04-15T03:08:35.403Z,0.00
2023-04-15T03:09:35.326Z,0.00
2023-04-15T03:10:35.243Z,0.00
2023-04-15T03:11:36.452Z,0.00
2023-04-15T03:12:35.079Z,0.00
2023-04-15T03:13:34.991Z,0.00
2023-04-15T03:14:34.905Z,0.00
2023-04-15T03:15:34.838Z,0.00
2023-04-15T03:16:34.744Z,0.00
2023-04-15T03:17:34.679Z,0.00
2023-04-15T03:18:34.574Z,0.00
2023-04-15T03:19:34.495Z,0.00
2023-04-15T03:20:34.426Z,0.00
2023-04-15T03:21:34.335Z,0.00
2023-04-15T03:22:34.253Z,0.00
2023-04-15T03:23:34.161Z,0.00
2023-04-15T03:24:34.080Z,0.00
2023-04-15T03:25:34.004Z,0.00
2023-04-15T03:26:33.912Z,0.00
2023-04-15T03:27:33.835Z,0.00
2023-04-15T03:28:33.771Z,0.00
2023-04-15T03:29:33.674Z,0.00
2023-04-15T03:30:33.596Z,0.00
2023-04-15T03:31:33.545Z,0.00
2023-04-15T03:32:33.469Z,0.00
2023-04-15T03:33:33.337Z,0.00
2023-04-15T03:34:33.253Z,0.00
2023-04-15T03:35:33.168Z,0.00
2023-04-15T03:36:33.119Z,0.00
2023-04-15T03:37:33.014Z,0.00
2023-04-15T03:38:32.924Z,0.00
2023-04-15T03:39:32.839Z,0.00
2023-04-15T03:40:32.757Z,0.00
2023-04-15T03:41:32.674Z,0.00
2023-04-15T03:42:32.603Z,0.00
2023-04-15T03:43:32.514Z,0.00
2023-04-15T03:44:32.425Z,0.00
2023-04-15T03:45:32.344Z,0.00
2023-04-15T03:46:32.314Z,0.00
2023-04-15T03:47:32.210Z,0.00
2023-04-15T03:48:32.094Z,0.00
2023-04-15T03:49:32.010Z,0.00
2023-04-15T03:50:31.927Z,0.00
2023-04-15T03:51:31.847Z,0.00
2023-04-15T03:52:31.769Z,0.00
2023-04-15T03:53:31.681Z,0.00
2023-04-15T03:54:31.593Z,0.00
2023-04-15T03:55:31.519Z,0.00
2023-04-15T03:56:31.434Z,0.00
2023-04-15T03:57:31.367Z,0.00
2023-04-15T03:58:31.270Z,0.00
2023-04-15T03:59:31.182Z,0.00
2023-04-15T04:00:31.109Z,0.00
2023-04-15T04:01:31.032Z,0.00
2023-04-15T04:02:31.088Z,0.00
2023-04-15T04:03:30.986Z,0.00
2023-04-15T04:04:30.910Z,0.00
2023-04-15T04:05:30.685Z,0.00
2023-04-15T04:06:30.605Z,0.00
2023-04-15T04:07:30.520Z,0.00
2023-04-15T04:08:30.431Z,0.00
2023-04-15T04:09:30.358Z,0.00
2023-04-15T04:10:30.272Z,0.00
2023-04-15T04:11:30.189Z,0.00
2023-04-15T04:12:30.103Z,0.00
2023-04-15T04:13:30.023Z,0.00
2023-04-15T04:14:29.938Z,0.00
2023-04-15T04:15:29.872Z,0.00
2023-04-15T04:16:29.872Z,0.00
2023-04-15T04:17:29.750Z,0.00
2023-04-15T04:18:29.602Z,0.00
2023-04-15T04:19:29.524Z,0.00
2023-04-15T04:20:29.441Z,0.00
2023-04-15T04:21:29.360Z,0.00
2023-04-15T04:22:29.281Z,0.00
2023-04-15T04:23:29.194Z,0.00
2023-04-15T04:24:29.118Z,0.00
2023-04-15T04:25:29.030Z,0.00
2023-04-15T04:26:28.949Z,0.00
2023-04-15T04:27:28.862Z,0.00
2023-04-15T04:28:28.773Z,0.00
2023-04-15T04:29:28.694Z,0.00
2023-04-15T04:30:28.618Z,0.00
2023-04-15T04:31:28.564Z,0.00
2023-04-15T04:32:28.450Z,0.00
2023-04-15T04:33:28.369Z,0.00
2023-04-15T04:34:28.275Z,0.00
2023-04-15T04:35:28.196Z,0.00
2023-04-15T04:36:28.123Z,0.00
2023-04-15T04:37:28.039Z,0.00
2023-04-15T04:38:27.944Z,0.00
2023-04-15T04:39:27.866Z,0.00
2023-04-15T04:40:27.778Z,0.00
2023-04-15T04:41:27.694Z,0.00
2023-04-15T04:42:27.610Z,0.00
2023-04-15T04:43:27.531Z,0.00
2023-04-15T04:44:27.446Z,0.00
2023-04-15T04:45:27.370Z,0.00
2023-04-15T04:46:27.283Z,0.00
2023-04-15T04:47:27.230Z,0.00
2023-04-15T04:48:27.117Z,0.00
2023-04-15T04:49:27.032Z,0.00
2023-04-15T04:50:26.953Z,0.00
2023-04-15T04:51:26.874Z,0.00
2023-04-15T04:52:26.796Z,0.00
2023-04-15T04:53:26.701Z,0.00
2023-04-15T04:54:26.617Z,0.00
2023-04-15T04:55:26.538Z,0.00
2023-04-15T04:56:26.453Z,0.00
2023-04-15T04:57:26.368Z,0.00
2023-04-15T04:58:26.284Z,0.00
2023-04-15T04:59:26.201Z,0.00
2023-04-15T05:00:26.123Z,0.00
2023-04-15T05:01:26.106Z,0.00
2023-04-15T05:02:26.085Z,0.00
2023-04-15T05:03:25.933Z,0.00
2023-04-15T05:04:25.789Z,0.00
2023-04-15T05:05:25.706Z,0.00
2023-04-15T05:06:25.620Z,0.00
2023-04-15T05:07:25.540Z,0.00
2023-04-15T05:08:25.452Z,0.00
2023-04-15T05:09:25.378Z,0.00
2023-04-15T05:10:25.295Z,0.00
2023-04-15T05:11:25.233Z,0.00
2023-04-15T05:12:25.127Z,0.00
2023-04-15T05:13:25.050Z,0.00
2023-04-15T05:14:24.961Z,0.00
2023-04-15T05:15:24.877Z,0.00
2023-04-15T05:16:24.816Z,0.00
2023-04-15T05:17:24.738Z,0.00
2023-04-15T05:18:24.629Z,0.00
2023-04-15T05:19:24.551Z,0.00
2023-04-15T05:20:24.468Z,5.63
2023-04-15T05:21:24.383Z,5.63
2023-04-15T05:22:24.298Z,5.63
2023-04-15T05:23:24.216Z,5.63
2023-04-15T05:24:24.133Z,5.63
2023-04-15T05:25:24.055Z,5.63
2023-04-15T05:26:23.971Z,5.63
2023-04-15T05:27:23.923Z,5.63
2023-04-15T05:28:23.809Z,5.63
2023-04-15T05:29:23.719Z,5.63
2023-04-15T05:30:23.641Z,5.63
2023-04-15T05:31:23.597Z,5.63
2023-04-15T05:32:23.545Z,5.63
2023-04-15T05:33:23.397Z,5.63
2023-04-15T05:34:23.301Z,5.63
2023-04-15T05:35:23.227Z,11.25
2023-04-15T05:36:23.140Z,11.25
2023-04-15T05:37:23.081Z,11.25
2023-04-15T05:38:22.974Z,11.25
2023-04-15T05:39:22.890Z,11.25
2023-04-15T05:40:22.805Z,11.25
2023-04-15T05:41:22.730Z,11.25
2023-04-15T05:42:22.641Z,11.25
2023-04-15T05:43:22.560Z,11.25
2023-04-15T05:44:22.474Z,11.25
2023-04-15T05:45:22.393Z,11.25
2023-04-15T05:46:22.329Z,11.25
2023-04-15T05:47:22.237Z,11.25
2023-04-15T05:48:22.151Z,11.25
2023-04-15T05:49:22.060Z,11.25
2023-04-15T05:50:21.998Z,11.25
2023-04-15T05:51:21.896Z,11.25
2023-04-15T05:52:21.816Z,11.25
2023-04-15T05:53:21.726Z,11.25
2023-04-15T05:54:21.649Z,16.88
2023-04-15T05:55:21.569Z,16.88
2023-04-15T05:56:21.513Z,16.88
2023-04-15T05:57:21.396Z,16.88
2023-04-15T05:58:21.329Z,16.88
2023-04-15T05:59:21.235Z,16.88
2023-04-15T06:00:21.160Z,16.88
2023-04-15T06:01:21.075Z,16.88
2023-04-15T06:02:21.103Z,16.88
2023-04-15T06:03:21.028Z,16.88
2023-04-15T06:04:20.893Z,22.50
2023-04-15T06:05:20.742Z,22.50
2023-04-15T06:06:20.664Z,22.50
2023-04-15T06:07:20.581Z,22.50
2023-04-15T06:08:20.496Z,22.50
2023-04-15T06:09:20.410Z,16.88
2023-04-15T06:10:20.328Z,16.88
2023-04-15T06:11:20.259Z,16.88
2023-04-15T06:12:20.158Z,16.88
2023-04-15T06:13:20.076Z,16.88
2023-04-15T06:14:20.005Z,16.88
2023-04-15T06:15:19.911Z,16.88
2023-04-15T06:16:19.885Z,16.88
2023-04-15T06:17:19.779Z,11.25
2023-04-15T06:18:19.665Z,11.25
2023-04-15T06:19:19.602Z,11.25
2023-04-15T06:20:19.495Z,11.25
2023-04-15T06:21:19.418Z,11.25
2023-04-15T06:22:19.330Z,11.25
2023-04-15T06:23:19.245Z,11.25
2023-04-15T06:24:19.174Z,11.25
2023-04-15T06:25:19.095Z,11.25
2023-04-15T06:26:18.998Z,11.25
2023-04-15T06:27:18.930Z,11.25
2023-04-15T06:28:18.855Z,11.25
2023-04-15T06:29:18.764Z,11.25
2023-04-15T06:30:18.671Z,16.88
2023-04-15T06:31:18.635Z,16.88
2023-04-15T06:32:18.506Z,16.88
2023-04-15T06:33:18.420Z,16.88
2023-04-15T06:34:18.342Z,16.88
2023-04-15T06:35:18.266Z,16.88
2023-04-15T06:36:18.182Z,22.50
2023-04-15T06:37:18.094Z,22.50
2023-04-15T06:38:18.020Z,22.50
2023-04-15T06:39:17.964Z,22.50
2023-04-15T06:40:17.857Z,22.50
2023-04-15T06:41:17.760Z,22.50
2023-04-15T06:42:17.685Z,22.50
2023-04-15T06:43:17.596Z,22.50
2023-04-15T06:44:17.515Z,28.13
2023-04-15T06:45:17.428Z,28.13
2023-04-15T06:46:17.484Z,28.13
2023-04-15T06:47:17.324Z,28.13
2023-04-15T06:48:17.184Z,28.13
2023-04-15T06:49:17.096Z,28.13
2023-04-15T06:50:17.019Z,28.13
2023-04-15T06:51:16.935Z,28.13
2023-04-15T06:52:16.855Z,28.13
2023-04-15T06:53:16.780Z,28.13
2023-04-15T06:54:16.689Z,28.13
2023-04-15T06:55:16.616Z,28.13
2023-04-15T06:56:16.533Z,28.13
2023-04-15T06:57:16.460Z,28.13
2023-04-15T06:58:16.359Z,28.13
2023-04-15T06:59:16.277Z,28.13
2023-04-15T07:00:16.191Z,33.75
2023-04-15T07:01:16.196Z,33.75
2023-04-15T07:02:16.101Z,33.75
2023-04-15T07:03:16.028Z,33.75
2023-04-15T07:04:15.913Z,33.75
2023-04-15T07:05:15.779Z,39.38
2023-04-15T07:06:15.699Z,39.38
2023-04-15T07:07:15.619Z,39.38
2023-04-15T07:08:15.538Z,39.38
2023-04-15T07:09:15.452Z,39.38
2023-04-15T07:10:15.370Z,39.38
2023-04-15T07:11:15.291Z,39.38
2023-04-15T07:12:15.214Z,39.38
2023-04-15T07:13:15.124Z,39.38
2023-04-15T07:14:15.041Z,39.38
2023-04-15T07:15:14.959Z,39.38
2023-04-15T07:16:14.906Z,39.38
2023-04-15T07:17:14.797Z,39.38
2023-04-15T07:18:14.715Z,39.38
2023-04-15T07:19:14.631Z,33.75
2023-04-15T07:20:14.550Z,33.75
2023-04-15T07:21:14.467Z,33.75
2023-04-15T07:22:14.385Z,33.75
2023-04-15T07:23:14.309Z,33.75
2023-04-15T07:24:14.220Z,33.75
2023-04-15T07:25:14.340Z,33.75
2023-04-15T07:26:14.060Z,33.75
2023-04-15T07:27:13.971Z,33.75
2023-04-15T07:28:13.890Z,33.75
2023-04-15T07:29:13.812Z,33.75
2023-04-15T07:30:13.727Z,33.75
2023-04-15T07:31:13.689Z,33.75
2023-04-15T07:32:13.566Z,33.75
2023-04-15T07:33:13.478Z,33.75
2023-04-15T07:34:13.409Z,33.75
2023-04-15T07:35:13.320Z,39.38
2023-04-15T07:36:13.249Z,39.38
2023-04-15T07:37:13.152Z,39.38
2023-04-15T07:38:13.070Z,39.38
2023-04-15T07:39:12.994Z,45.00
2023-04-15T07:40:12.971Z,45.00
2023-04-15T07:41:12.825Z,45.00
2023-04-15T07:42:12.742Z,45.00
2023-04-15T07:43:12.665Z,45.00
2023-04-15T07:44:12.588Z,45.00
2023-04-15T07:45:12.532Z,45.00
2023-04-15T07:46:12.970Z,45.00
2023-04-15T07:47:12.341Z,45.00
2023-04-15T07:48:12.254Z,45.00
2023-04-15T07:49:12.171Z,45.00
2023-04-15T07:50:12.091Z,45.00
2023-04-15T07:51:12.059Z,45.00
2023-04-15T07:52:11.931Z,45.00
2023-04-15T07:53:11.842Z,45.00
2023-04-15T07:54:11.766Z,45.00
2023-04-15T07:55:11.682Z,45.00
2023-04-15T07:56:11.697Z,45.00
2023-04-15T07:57:11.514Z,50.63
2023-04-15T07:58:11.437Z,50.63
2023-04-15T07:59:11.354Z,50.63
2023-04-15T08:00:11.287Z,50.63
2023-04-15T08:01:11.274Z,56.25
2023-04-15T08:02:11.175Z,56.25
2023-04-15T08:03:11.163Z,61.88
2023-04-15T08:04:11.078Z,67.50
2023-04-15T08:05:10.962Z,78.75
2023-04-15T08:06:10.890Z,84.38
2023-04-15T08:07:10.719Z,78.75
2023-04-15T08:08:10.620Z,78.75
2023-04-15T08:09:10.537Z,78.75
2023-04-15T08:10:10.472Z,90.00
2023-04-15T08:11:10.509Z,78.75
2023-04-15T08:12:10.299Z,90.00
2023-04-15T08:13:10.212Z,73.13
2023-04-15T08:14:10.134Z,67.50
2023-04-15T08:15:10.065Z,61.88
2023-04-15T08:16:10.056Z,56.25
2023-04-15T08:17:09.901Z,50.63
2023-04-15T08:18:09.799Z,45.00
2023-04-15T08:19:09.713Z,45.00
2023-04-15T08:20:09.630Z,45.00
2023-04-15T08:21:09.698Z,50.63
2023-04-15T08:22:10.452Z,50.63
2023-04-15T08:23:09.398Z,56.25
2023-04-15T08:24:09.306Z,56.25
2023-04-15T08:25:09.224Z,56.25
2023-04-15T08:26:09.344Z,56.25
2023-04-15T08:27:09.185Z,61.88
2023-04-15T08:28:08.995Z,61.88
2023-04-15T08:29:08.901Z,61.88
2023-04-15T08:30:08.827Z,78.75
2023-04-15T08:31:08.833Z,73.13
2023-04-15T08:32:08.765Z,73.13
2023-04-15T08:33:08.573Z,73.13
2023-04-15T08:34:08.496Z,73.13
2023-04-15T08:35:08.407Z,67.50
2023-04-15T08:36:08.475Z,67.50
2023-04-15T08:37:09.128Z,56.25
2023-04-15T08:38:08.163Z,56.25
2023-04-15T08:39:08.086Z,50.63
2023-04-15T08:40:08.008Z,50.63
2023-04-15T08:41:07.918Z,50.63
2023-04-15T08:42:07.922Z,50.63
2023-04-15T08:43:07.757Z,56.25
2023-04-15T08:44:07.688Z,50.63
2023-04-15T08:45:07.592Z,50.63
2023-04-15T08:46:07.517Z,56.25
2023-04-15T08:47:07.735Z,56.25
2023-04-15T08:48:07.362Z,61.88
2023-04-15T08:49:07.270Z,67.50
2023-04-15T08:50:07.189Z,61.88
2023-04-15T08:51:07.105Z,61.88
2023-04-15T08:52:07.266Z,56.25
2023-04-15T08:53:07.049Z,56.25
2023-04-15T08:54:06.879Z,56.25
2023-04-15T08:55:06.780Z,50.63
2023-04-15T08:56:06.701Z,45.00
2023-04-15T08:57:06.847Z,45.00
2023-04-15T08:58:06.589Z,45.00
2023-04-15T08:59:06.453Z,45.00
2023-04-15T09:00:06.378Z,45.00
2023-04-15T09:01:06.309Z,45.00
2023-04-15T09:02:06.301Z,39.38
2023-04-15T09:03:06.345Z,39.38
2023-04-15T09:04:06.109Z,39.38
2023-04-15T09:05:05.970Z,39.38
2023-04-15T09:06:05.890Z,39.38
2023-04-15T09:07:05.817Z,33.75
2023-04-15T09:08:05.911Z,33.75
2023-04-15T09:09:05.642Z,33.75
2023-04-15T09:10:05.563Z,33.75
2023-04-15T09:11:05.480Z,33.75
2023-04-15T09:12:05.400Z,33.75
2023-04-15T09:13:05.489Z,39.38
2023-04-15T09:14:05.238Z,39.38
2023-04-15T09:15:05.168Z,33.75
2023-04-15T09:16:05.102Z,33.75
2023-04-15T09:17:05.215Z,39.38
2023-04-15T09:18:05.154Z,39.38
2023-04-15T09:19:04.835Z,39.38
2023-04-15T09:20:04.749Z,39.38
2023-04-15T09:21:04.664Z,45.00
2023-04-15T09:22:04.591Z,45.00
2023-04-15T09:23:04.595Z,45.00
2023-04-15T09:24:04.587Z,45.00
2023-04-15T09:25:04.336Z,45.00
2023-04-15T09:26:04.257Z,45.00
2023-04-15T09:27:04.186Z,50.63
2023-04-15T09:28:04.290Z,50.63
2023-04-15T09:29:04.114Z,56.25
2023-04-15T09:30:03.928Z,61.88
2023-04-15T09:31:03.907Z,61.88
2023-04-15T09:32:03.769Z,61.88
2023-04-15T09:33:03.784Z,56.25
2023-04-15T09:34:03.866Z,56.25
2023-04-15T09:35:03.527Z,56.25
2023-04-15T09:36:03.454Z,61.88
2023-04-15T09:37:03.544Z,56.25
2023-04-15T09:38:03.284Z,50.63
2023-04-15T09:39:03.481Z,45.00
2023-04-15T09:40:03.117Z,45.00
2023-04-15T09:41:03.044Z,45.00
2023-04-15T09:42:02.960Z,50.63
2023-04-15T09:43:02.872Z,45.00
2023-04-15T09:44:03.109Z,39.38
2023-04-15T09:45:02.710Z,39.38
2023-04-15T09:46:02.639Z,39.38
2023-04-15T09:47:02.546Z,33.75
2023-04-15T09:48:02.512Z,39.38
2023-04-15T09:49:02.720Z,39.38
2023-04-15T09:50:02.402Z,39.38
2023-04-15T09:51:02.223Z,45.00
2023-04-15T09:52:05.683Z,45.00
2023-04-15T09:53:02.062Z,39.38
2023-04-15T09:54:02.112Z,39.38
2023-04-15T09:55:01.903Z,39.38
2023-04-15T09:56:01.836Z,33.75
2023-04-15T09:57:01.737Z,33.75
2023-04-15T09:58:01.659Z,33.75
2023-04-15T09:59:01.573Z,33.75
2023-04-15T10:00:01.503Z,33.75
2023-04-15T10:01:01.432Z,33.75
2023-04-15T10:02:01.359Z,33.75
2023-04-15T10:03:01.316Z,28.13
2023-04-15T10:04:01.546Z,28.13
2023-04-15T10:05:01.091Z,28.13
2023-04-15T10:06:01.032Z,28.13
2023-04-15T10:07:00.925Z,28.13
2023-04-15T10:08:00.852Z,33.75
2023-04-15T10:09:00.765Z,39.38
2023-04-15T10:10:00.680Z,39.38
2023-04-15T10:11:00.605Z,45.00
2023-04-15T10:12:00.536Z,45.00
2023-04-15T10:13:00.443Z,39.38
2023-04-15T10:14:00.642Z,45.00
2023-04-15T10:15:00.275Z,50.63
2023-04-15T10:16:00.235Z,56.25
2023-04-15T10:17:00.122Z,56.25
2023-04-15T10:18:00.080Z,56.25
2023-04-15T10:18:59.952Z,56.25
2023-04-15T10:19:59.873Z,50.63
2023-04-15T10:20:59.808Z,50.63
2023-04-15T10:21:59.710Z,50.63
2023-04-15T10:22:59.627Z,50.63
2023-04-15T10:23:59.689Z,50.63
2023-04-15T10:24:59.465Z,50.63
2023-04-15T10:25:59.385Z,45.00
2023-04-15T10:26:59.300Z,45.00
2023-04-15T10:27:59.218Z,45.00
2023-04-15T10:29:00.208Z,45.00
2023-04-15T10:29:59.069Z,39.38
2023-04-15T10:30:59.041Z,39.38
2023-04-15T10:31:58.896Z,39.38
2023-04-15T10:32:58.874Z,39.38
2023-04-15T10:33:58.736Z,39.38
2023-04-15T10:34:58.650Z,39.38
2023-04-15T10:35:58.568Z,39.38
2023-04-15T10:36:58.501Z,39.38
2023-04-15T10:37:58.410Z,45.00
2023-04-15T10:38:58.322Z,45.00
2023-04-15T10:39:58.246Z,45.00
2023-04-15T10:40:58.162Z,45.00
2023-04-15T10:41:58.088Z,45.00
2023-04-15T10:42:58.004Z,39.38
2023-04-15T10:43:57.961Z,39.38
2023-04-15T10:44:57.833Z,39.38
2023-04-15T10:45:57.760Z,39.38
2023-04-15T10:46:57.778Z,39.38
2023-04-15T10:47:57.668Z,39.38
2023-04-15T10:48:57.512Z,39.38
2023-04-15T10:49:57.431Z,39.38
2023-04-15T10:50:57.355Z,45.00
2023-04-15T10:51:57.275Z,45.00
2023-04-15T10:52:57.187Z,45.00
2023-04-15T10:53:57.106Z,45.00
2023-04-15T10:54:57.020Z,50.63
2023-04-15T10:55:56.941Z,50.63
2023-04-15T10:56:56.856Z,50.63
2023-04-15T10:57:56.780Z,56.25
2023-04-15T10:58:56.697Z,61.88
2023-04-15T10:59:56.621Z,61.88
2023-04-15T11:00:56.533Z,67.50
2023-04-15T11:01:56.852Z,78.75
2023-04-15T11:02:56.539Z,78.75
2023-04-15T11:03:56.497Z,78.75
2023-04-15T11:04:56.540Z,90.00
2023-04-15T11:05:56.128Z,95.63
2023-04-15T11:06:56.038Z,101.25
2023-04-15T11:07:56.051Z,101.25
2023-04-15T11:08:55.879Z,95.63
2023-04-15T11:09:55.803Z,84.38
2023-04-15T11:10:55.714Z,73.13
2023-04-15T11:11:55.635Z,61.88
2023-04-15T11:12:55.551Z,50.63
2023-04-15T11:13:55.470Z,50.63
2023-04-15T11:14:55.389Z,45.00
2023-04-15T11:15:55.337Z,45.00
2023-04-15T11:16:55.226Z,39.38
2023-04-15T11:17:55.172Z,39.38
2023-04-15T11:18:55.075Z,33.75
2023-04-15T11:19:54.981Z,33.75
2023-04-15T11:20:54.910Z,33.75
2023-04-15T11:21:54.824Z,28.13
2023-04-15T11:23:13.977Z,28.13
2023-04-15T11:23:54.655Z,28.13
2023-04-15T11:24:54.573Z,28.13
2023-04-15T11:25:54.495Z,28.13
2023-04-15T11:26:54.414Z,22.50
2023-04-15T11:27:54.343Z,22.50
2023-04-15T11:28:54.245Z,22.50
2023-04-15T11:29:54.173Z,22.50
2023-04-15T11:30:54.086Z,28.13
2023-04-15T11:31:54.058Z,28.13
2023-04-15T11:32:53.965Z,33.75
2023-04-15T11:33:53.842Z,33.75
2023-04-15T11:34:53.779Z,33.75
2023-04-15T11:35:53.697Z,33.75
2023-04-15T11:36:53.591Z,28.13
2023-04-15T11:37:53.517Z,28.13
2023-04-15T11:38:53.431Z,28.13
2023-04-15T11:39:53.348Z,22.50
2023-04-15T11:40:53.296Z,22.50
2023-04-15T11:41:53.188Z,22.50
2023-04-15T11:42:53.110Z,22.50
2023-04-15T11:43:53.032Z,28.13
2023-04-15T11:44:52.945Z,28.13
2023-04-15T11:45:53.036Z,28.13
2023-04-15T11:46:52.780Z,28.13
2023-04-15T11:47:52.729Z,28.13
2023-04-15T11:48:52.622Z,28.13
2023-04-15T11:49:52.533Z,28.13
2023-04-15T11:50:52.454Z,28.13
2023-04-15T11:51:52.369Z,28.13
2023-04-15T11:52:52.291Z,28.13
2023-04-15T11:53:52.220Z,28.13
2023-04-15T11:54:52.141Z,22.50
2023-04-15T11:55:52.051Z,22.50
2023-04-15T11:56:51.963Z,16.88
2023-04-15T11:57:51.881Z,16.88
2023-04-15T11:58:51.798Z,16.88
2023-04-15T11:59:51.720Z,16.88
2023-04-15T12:00:51.797Z,16.88
2023-04-15T12:01:51.595Z,16.88
2023-04-15T12:02:51.567Z,16.88
2023-04-15T12:03:51.526Z,16.88
2023-04-15T12:04:51.357Z,16.88
2023-04-15T12:05:51.304Z,16.88
2023-04-15T12:06:51.147Z,16.88
2023-04-15T12:07:51.059Z,22.50
2023-04-15T12:08:50.981Z,22.50
2023-04-15T12:09:50.898Z,22.50
2023-04-15T12:10:50.845Z,22.50
2023-04-15T12:11:50.733Z,22.50
2023-04-15T12:12:50.668Z,22.50
2023-04-15T12:13:50.580Z,16.88
2023-04-15T12:14:50.486Z,16.88
2023-04-15T12:15:50.474Z,22.50
2023-04-15T12:16:51.724Z,22.50
2023-04-15T12:17:51.597Z,22.50
2023-04-15T12:18:50.163Z,28.13
2023-04-15T12:19:50.077Z,28.13
2023-04-15T12:20:50.166Z,28.13
2023-04-15T12:21:49.922Z,28.13
2023-04-15T12:22:49.833Z,28.13
2023-04-15T12:23:49.754Z,28.13
2023-04-15T12:24:49.663Z,28.13
2023-04-15T12:25:49.604Z,28.13
2023-04-15T12:26:49.506Z,28.13
2023-04-15T12:27:49.420Z,22.50
2023-04-15T12:28:49.346Z,22.50
2023-04-15T12:29:49.266Z,22.50
2023-04-15T12:30:49.179Z,22.50
2023-04-15T12:31:49.129Z,22.50
2023-04-15T12:32:49.037Z,22.50
2023-04-15T12:33:48.941Z,22.50
2023-04-15T12:34:48.858Z,16.88
2023-04-15T12:35:48.772Z,16.88
2023-04-15T12:36:48.951Z,16.88
2023-04-15T12:37:48.610Z,16.88
2023-04-15T12:38:48.530Z,16.88
2023-04-15T12:39:48.447Z,16.88
2023-04-15T12:40:48.360Z,16.88
2023-04-15T12:41:48.786Z,16.88
2023-04-15T12:42:48.202Z,16.88
2023-04-15T12:43:48.116Z,16.88
2023-04-15T12:44:48.051Z,16.88
2023-04-15T12:45:47.953Z,16.88
2023-04-15T12:46:47.952Z,16.88
2023-04-15T12:47:47.849Z,16.88
2023-04-15T12:48:47.706Z,16.88
2023-04-15T12:49:47.638Z,16.88
2023-04-15T12:50:47.549Z,16.88
2023-04-15T12:51:47.799Z,16.88
2023-04-15T12:52:47.382Z,16.88
2023-04-15T12:53:47.306Z,16.88
2023-04-15T12:54:47.225Z,16.88
2023-04-15T12:55:47.150Z,16.88
2023-04-15T12:56:47.147Z,16.88
2023-04-15T12:57:46.975Z,16.88
2023-04-15T12:58:46.891Z,16.88
2023-04-15T12:59:46.810Z,16.88
2023-04-15T13:00:46.729Z,16.88
2023-04-15T13:01:46.822Z,16.88
2023-04-15T13:02:46.840Z,11.25